createdAt,value
2019-05-18T00:00:53.182Z,99464.70
2019-05-18T00:03:56.811Z,99460.77
2019-05-18T00:07:00.351Z,99460.14
2019-05-18T00:10:05.350Z,99456.05
2019-05-18T00:13:08.877Z,99451.84
2019-05-18T00:16:12.612Z,99458.42
2019-05-18T00:19:16.296Z,99464.59
2019-05-18T00:22:19.877Z,99461.38
2019-05-18T00:25:23.478Z,99459.53
2019-05-18T00:28:27.118Z,99452.90
2019-05-18T00:31:30.743Z,99457.69
2019-05-18T00:34:34.373Z,99450.88
2019-05-18T00:37:37.961Z,99457.69
2019-05-18T00:40:43.635Z,99457.91
2019-05-18T00:43:47.197Z,99456.59
2019-05-18T00:46:53.942Z,99454.26
2019-05-18T00:49:57.721Z,99457.73
2019-05-18T00:53:01.288Z,99456.75
2019-05-18T00:56:04.947Z,99456.11
2019-05-18T00:59:08.535Z,99462.20
2019-05-18T01:02:12.093Z,99449.23
2019-05-18T01:05:15.768Z,99452.34
2019-05-18T01:08:19.409Z,99449.49
2019-05-18T01:11:23.007Z,99444.38
2019-05-18T01:14:26.590Z,99438.44
2019-05-18T01:17:30.235Z,99432.28
2019-05-18T01:20:34.479Z,99435.61
2019-05-18T01:23:38.091Z,99424.51
2019-05-18T01:26:41.749Z,99428.76
2019-05-18T01:29:45.471Z,99422.52
2019-05-18T01:32:49.132Z,99421.69
2019-05-18T01:35:52.713Z,99422.66
2019-05-18T01:38:56.327Z,99417.76
2019-05-18T01:41:59.927Z,99420.81
2019-05-18T01:45:16.452Z,99417.60
2019-05-18T01:48:13.621Z,99409.97
2019-05-18T01:51:15.405Z,99387.98
2019-05-18T01:54:18.965Z,99418.03
2019-05-18T01:57:22.526Z,99421.83
2019-05-18T02:00:26.195Z,99425.03
2019-05-18T02:03:29.778Z,99425.31
2019-05-18T02:06:33.348Z,99417.62
2019-05-18T02:09:36.908Z,99424.64
2019-05-18T02:12:40.485Z,99418.06
2019-05-18T02:15:44.030Z,99418.23
2019-05-18T02:18:47.616Z,99412.58
2019-05-18T02:21:51.243Z,99414.77
2019-05-18T02:24:54.730Z,99417.80
2019-05-18T02:27:58.328Z,99414.34
2019-05-18T02:31:01.989Z,99420.82
2019-05-18T02:34:05.656Z,99417.16
2019-05-18T02:37:09.373Z,99417.38
2019-05-18T02:40:13.183Z,99421.66
2019-05-18T02:43:17.374Z,99419.38
2019-05-18T02:46:20.972Z,99421.77
2019-05-18T02:49:24.513Z,99411.93
2019-05-18T02:52:28.130Z,99417.38
2019-05-18T02:55:31.690Z,99418.08
2019-05-18T02:58:35.265Z,99413.61
2019-05-18T03:01:38.857Z,99411.25
2019-05-18T03:04:42.352Z,99408.42
2019-05-18T03:07:45.920Z,99412.76
2019-05-18T03:10:49.599Z,99403.23
2019-05-18T03:13:53.323Z,99408.50
2019-05-18T03:16:56.895Z,99408.40
2019-05-18T03:20:00.489Z,99402.96
2019-05-18T03:23:04.096Z,99411.37
2019-05-18T03:26:07.678Z,99409.83
2019-05-18T03:29:11.257Z,99410.33
2019-05-18T03:32:14.818Z,99409.61
2019-05-18T03:35:18.409Z,99410.47
2019-05-18T03:38:21.987Z,99412.36
2019-05-18T03:41:25.598Z,99416.52
2019-05-18T03:44:29.199Z,99414.44
2019-05-18T03:47:32.775Z,99419.45
2019-05-18T03:50:36.300Z,99420.52
2019-05-18T03:53:39.845Z,99421.20
2019-05-18T03:56:43.344Z,99418.95
2019-05-18T03:59:46.893Z,99419.17
2019-05-18T04:02:50.752Z,99419.67
2019-05-18T04:05:54.334Z,99416.01
2019-05-18T04:08:57.905Z,99413.49
2019-05-18T04:12:01.490Z,99417.88
2019-05-18T04:15:06.987Z,99415.15
2019-05-18T04:18:10.538Z,99418.65
2019-05-18T04:21:14.116Z,99414.87
2019-05-18T04:24:17.693Z,99415.34
2019-05-18T04:27:21.223Z,99414.52
2019-05-18T04:30:24.803Z,99414.81
2019-05-18T04:33:28.327Z,99409.30
2019-05-18T04:36:31.902Z,99411.34
2019-05-18T04:39:35.423Z,99410.68
2019-05-18T04:42:38.992Z,99413.45
2019-05-18T04:45:42.611Z,99422.98
2019-05-18T04:48:46.177Z,99414.23
2019-05-18T04:51:49.689Z,99409.89
2019-05-18T04:54:53.279Z,99415.93
2019-05-18T04:57:56.787Z,99416.06
2019-05-18T05:01:00.440Z,99413.87
2019-05-18T05:04:04.050Z,99413.18
2019-05-18T05:07:07.642Z,99413.54
2019-05-18T05:10:11.350Z,99410.84
2019-05-18T05:13:15.867Z,99410.99
2019-05-18T05:16:19.476Z,99415.42
2019-05-18T05:19:23.168Z,99411.84
2019-05-18T05:22:26.754Z,99413.09
2019-05-18T05:25:30.338Z,99415.11
2019-05-18T05:28:33.916Z,99404.98
2019-05-18T05:31:37.519Z,99411.08
2019-05-18T05:34:41.066Z,99409.02
2019-05-18T05:37:44.723Z,99395.92
2019-05-18T05:40:48.256Z,99394.69
2019-05-18T05:43:51.875Z,99394.28
2019-05-18T05:46:55.537Z,99387.08
2019-05-18T05:49:59.146Z,99390.11
2019-05-18T05:53:02.702Z,99393.48
2019-05-18T05:56:06.285Z,99395.22
2019-05-18T05:59:09.854Z,99396.98
2019-05-18T06:02:13.428Z,99387.72
2019-05-18T06:05:17.120Z,99389.94
2019-05-18T06:08:20.751Z,99389.33
2019-05-18T06:11:24.325Z,99395.48
2019-05-18T06:14:27.959Z,99392.03
2019-05-18T06:17:31.693Z,99393.30
2019-05-18T06:20:50.133Z,99396.59
2019-05-18T06:23:40.782Z,99395.48
2019-05-18T06:26:44.523Z,99391.64
2019-05-18T06:29:48.172Z,99384.41
2019-05-18T06:32:51.846Z,99383.39
2019-05-18T06:35:55.557Z,99392.25
2019-05-18T06:38:59.126Z,99393.24
2019-05-18T06:42:02.777Z,99392.86
2019-05-18T06:45:08.844Z,99386.25
2019-05-18T06:48:12.546Z,99388.44
2019-05-18T06:51:16.253Z,99391.45
2019-05-18T06:54:19.964Z,99390.70
2019-05-18T06:57:25.646Z,99397.55
2019-05-18T07:00:29.445Z,99391.50
2019-05-18T07:03:33.103Z,99390.84
2019-05-18T07:06:36.787Z,99393.24
2019-05-18T07:09:40.424Z,99394.70
2019-05-18T07:12:45.717Z,99402.60
2019-05-18T07:15:49.378Z,99396.25
2019-05-18T07:18:53.132Z,99403.19
2019-05-18T07:21:56.790Z,99407.91
2019-05-18T07:25:00.420Z,99406.75
2019-05-18T07:28:04.245Z,99404.69
2019-05-18T07:31:07.830Z,99406.03
2019-05-18T07:34:11.467Z,99403.73
2019-05-18T07:37:15.278Z,99399.41
2019-05-18T07:40:19.070Z,99397.39
2019-05-18T07:43:22.989Z,99394.67
2019-05-18T07:46:26.629Z,99393.17
2019-05-18T07:49:30.279Z,99390.25
2019-05-18T07:52:33.972Z,99393.92
2019-05-18T07:55:37.675Z,99385.07
2019-05-18T07:58:41.333Z,99392.41
2019-05-18T08:01:45.017Z,99392.61
2019-05-18T08:04:48.795Z,99385.09
2019-05-18T08:07:52.490Z,99382.48
2019-05-18T08:10:56.080Z,99390.67
2019-05-18T08:14:02.721Z,99386.48
2019-05-18T08:17:06.341Z,99387.35
2019-05-18T08:20:10.258Z,99398.86
2019-05-18T08:23:13.871Z,99390.77
2019-05-18T08:26:17.587Z,99398.28
2019-05-18T08:29:21.205Z,99390.42
2019-05-18T08:32:24.832Z,99397.24
2019-05-18T08:35:28.547Z,99395.03
2019-05-18T08:38:32.379Z,99390.03
2019-05-18T08:41:36.044Z,99388.75
2019-05-18T08:44:39.651Z,99388.39
2019-05-18T08:47:43.512Z,99385.70
2019-05-18T08:50:47.109Z,99386.84
2019-05-18T08:53:50.792Z,99372.42
2019-05-18T08:56:54.528Z,99377.12
2019-05-18T08:59:58.172Z,99379.61
2019-05-18T09:03:01.791Z,99393.82
2019-05-18T09:06:05.614Z,99387.29
2019-05-18T09:09:09.393Z,99386.23
2019-05-18T09:12:13.044Z,99378.66
2019-05-18T09:15:17.113Z,99388.98
2019-05-18T09:18:20.822Z,99379.41
2019-05-18T09:21:24.440Z,99376.18
2019-05-18T09:24:28.099Z,99387.75
2019-05-18T09:27:31.944Z,99380.00
2019-05-18T09:30:37.315Z,99377.03
2019-05-18T09:33:46.914Z,99386.95
2019-05-18T09:36:46.335Z,99374.89
2019-05-18T09:39:51.616Z,99382.58
2019-05-18T09:42:55.407Z,99385.66
2019-05-18T09:45:59.099Z,99391.48
2019-05-18T09:49:02.852Z,99368.66
2019-05-18T09:52:06.555Z,99366.69
2019-05-18T09:55:10.337Z,99376.09
2019-05-18T09:58:13.959Z,99376.22
2019-05-18T10:01:17.902Z,99370.92
2019-05-18T10:04:32.045Z,99379.56
2019-05-18T10:07:35.892Z,99381.36
2019-05-18T10:10:39.597Z,99377.20
2019-05-18T10:13:43.260Z,99382.95
2019-05-18T10:16:46.941Z,99380.57
2019-05-18T10:19:50.593Z,99379.11
2019-05-18T10:23:11.359Z,99373.42
2019-05-18T10:25:59.781Z,99364.42
2019-05-18T10:29:03.397Z,99368.95
2019-05-18T10:32:09.724Z,99370.48
2019-05-18T10:35:15.831Z,99369.22
2019-05-18T10:38:19.490Z,99366.18
2019-05-18T10:41:23.199Z,99363.14
2019-05-18T10:44:26.841Z,99368.10
2019-05-18T10:47:33.198Z,99354.61
2019-05-18T10:50:36.860Z,99358.96
2019-05-18T10:53:40.441Z,99355.95
2019-05-18T10:56:45.214Z,99355.18
2019-05-18T10:59:48.954Z,99355.28
2019-05-18T11:02:52.867Z,99340.07
2019-05-18T11:05:56.496Z,99344.17
2019-05-18T11:09:00.126Z,99345.50
2019-05-18T11:12:03.869Z,99334.69
2019-05-18T11:15:08.787Z,99337.14
2019-05-18T11:18:12.975Z,99333.23
2019-05-18T11:21:16.608Z,99331.09
2019-05-18T11:24:20.299Z,99332.27
2019-05-18T11:27:23.974Z,99332.27
2019-05-18T11:30:27.841Z,99330.64
2019-05-18T11:33:31.499Z,99322.23
2019-05-18T11:36:35.101Z,99322.73
2019-05-18T11:39:38.786Z,99315.56
2019-05-18T11:42:42.396Z,99315.09
2019-05-18T11:45:46.057Z,99310.58
2019-05-18T11:48:50.121Z,99305.14
2019-05-18T11:51:53.774Z,99305.88
2019-05-18T11:54:57.390Z,99304.17
2019-05-18T11:58:01.067Z,99299.37
2019-05-18T12:01:04.705Z,99291.30
2019-05-18T12:04:08.363Z,99286.55
2019-05-18T12:07:12.090Z,99286.55
2019-05-18T12:10:18.360Z,99288.88
2019-05-18T12:13:22.505Z,99289.91
2019-05-18T12:16:26.338Z,99285.16
2019-05-18T12:19:29.963Z,99285.16
2019-05-18T12:22:33.555Z,99292.67
2019-05-18T12:25:37.242Z,99287.32
2019-05-18T12:28:43.153Z,99277.45
2019-05-18T12:31:46.882Z,99275.99
2019-05-18T12:34:50.491Z,99281.92
2019-05-18T12:37:54.190Z,99270.94
2019-05-18T12:40:57.858Z,99271.89
2019-05-18T12:44:01.643Z,99268.52
2019-05-18T12:47:05.316Z,99268.52
2019-05-18T12:50:10.475Z,99277.52
2019-05-18T12:53:14.089Z,99277.52
2019-05-18T12:56:17.797Z,99263.87
2019-05-18T12:59:21.443Z,99263.31
2019-05-18T13:02:25.103Z,99263.31
2019-05-18T13:05:28.714Z,99258.36
2019-05-18T13:08:32.374Z,99256.91
2019-05-18T13:11:36.020Z,99261.13
2019-05-18T13:14:39.698Z,99253.50
2019-05-18T13:17:43.345Z,99255.12
2019-05-18T13:20:47.084Z,99242.54
2019-05-18T13:23:50.681Z,99256.95
2019-05-18T13:26:54.338Z,99256.95
2019-05-18T13:29:57.968Z,99245.50
2019-05-18T13:33:05.865Z,99234.66
2019-05-18T13:36:09.481Z,99234.66
2019-05-18T13:39:13.193Z,99229.23
2019-05-18T13:42:16.873Z,99222.20
2019-05-18T13:45:20.849Z,99222.78
2019-05-18T13:48:26.005Z,99222.78
2019-05-18T13:51:36.506Z,99235.74
2019-05-18T13:54:39.300Z,99234.05
2019-05-18T13:57:43.022Z,99238.16
2019-05-18T14:00:46.629Z,99230.69
2019-05-18T14:03:50.273Z,99219.05
2019-05-18T14:06:55.408Z,99224.77
2019-05-18T14:10:01.940Z,99221.72
2019-05-18T14:13:05.584Z,99226.66
2019-05-18T14:16:09.231Z,99234.70
2019-05-18T14:19:12.819Z,99231.70
2019-05-18T14:22:16.504Z,99236.46
2019-05-18T14:25:20.511Z,99237.95
2019-05-18T14:28:24.105Z,99233.45
2019-05-18T14:31:27.770Z,99229.27
2019-05-18T14:34:31.501Z,99230.09
2019-05-18T14:37:36.827Z,99234.53
2019-05-18T14:40:40.602Z,99232.22
2019-05-18T14:43:44.282Z,99229.25
2019-05-18T14:46:47.972Z,99226.72
2019-05-18T14:49:51.654Z,99230.98
2019-05-18T14:52:55.364Z,99234.56
2019-05-18T14:55:59.008Z,99229.02
2019-05-18T14:59:02.734Z,99227.31
2019-05-18T15:02:06.418Z,99223.23
2019-05-18T15:05:10.443Z,99226.41
2019-05-18T15:08:14.111Z,99215.84
2019-05-18T15:11:17.754Z,99217.92
2019-05-18T15:14:21.383Z,99218.02
2019-05-18T15:17:25.071Z,99224.61
2019-05-18T15:20:28.733Z,99219.79
2019-05-18T15:23:32.342Z,99211.27
2019-05-18T15:26:36.101Z,99215.05
2019-05-18T15:29:39.739Z,99218.34
2019-05-18T15:32:43.397Z,99218.38
2019-05-18T15:35:47.118Z,99216.11
2019-05-18T15:38:50.709Z,99218.31
2019-05-18T15:41:54.374Z,99219.57
2019-05-18T15:44:58.115Z,99223.05
2019-05-18T15:48:01.799Z,99218.88
2019-05-18T15:51:05.563Z,99216.11
2019-05-18T15:54:09.264Z,99215.63
2019-05-18T15:57:12.928Z,99213.70
2019-05-18T16:00:17.077Z,99223.98
2019-05-18T16:03:20.940Z,99220.77
2019-05-18T16:06:25.031Z,99224.67
2019-05-18T16:09:28.916Z,99215.16
2019-05-18T16:12:32.550Z,99220.41
2019-05-18T16:15:36.216Z,99217.06
2019-05-18T16:18:39.828Z,99217.75
2019-05-18T16:21:43.526Z,99222.70
2019-05-18T16:24:47.168Z,99215.17
2019-05-18T16:27:50.859Z,99213.00
2019-05-18T16:30:54.465Z,99211.34
2019-05-18T16:33:58.190Z,99218.34
2019-05-18T16:37:01.946Z,99213.67
2019-05-18T16:40:07.264Z,99220.59
2019-05-18T16:43:10.927Z,99225.30
2019-05-18T16:46:14.545Z,99220.55
2019-05-18T16:49:18.219Z,99226.78
2019-05-18T16:52:21.863Z,99220.80
2019-05-18T16:55:25.524Z,99220.81
2019-05-18T16:58:29.138Z,99211.98
2019-05-18T17:01:32.800Z,99210.55
2019-05-18T17:04:36.484Z,99212.80
2019-05-18T17:07:40.284Z,99213.50
2019-05-18T17:10:43.960Z,99217.44
2019-05-18T17:13:47.596Z,99217.67
2019-05-18T17:16:54.027Z,99217.73
2019-05-18T17:19:57.652Z,99213.30
2019-05-18T17:23:01.394Z,99213.38
2019-05-18T17:26:05.083Z,99211.53
2019-05-18T17:29:08.728Z,99209.33
2019-05-18T17:32:12.331Z,99214.30
2019-05-18T17:35:16.344Z,99213.56
2019-05-18T17:38:20.031Z,99211.15
2019-05-18T17:41:23.680Z,99205.40
2019-05-18T17:44:27.313Z,99205.97
2019-05-18T17:47:31.013Z,99201.27
2019-05-18T17:50:34.617Z,99203.63
2019-05-18T17:53:38.302Z,99205.82
2019-05-18T17:56:41.939Z,99208.36
2019-05-18T17:59:45.695Z,99210.38
2019-05-18T18:02:49.278Z,99208.19
2019-05-18T18:05:52.935Z,99208.53
2019-05-18T18:08:56.536Z,99209.14
2019-05-18T18:12:00.264Z,99213.33
2019-05-18T18:15:05.007Z,99220.20
2019-05-18T18:18:08.719Z,99216.39
2019-05-18T18:21:12.604Z,99223.30
2019-05-18T18:24:16.257Z,99214.86
2019-05-18T18:27:25.392Z,99216.28
2019-05-18T18:30:25.311Z,99221.33
2019-05-18T18:33:28.964Z,99210.36
2019-05-18T18:36:32.607Z,99215.64
2019-05-18T18:39:36.334Z,99209.87
2019-05-18T18:42:40.011Z,99210.44
2019-05-18T18:45:45.515Z,99219.29
2019-05-18T18:48:50.191Z,99217.13
2019-05-18T18:51:53.808Z,99221.02
2019-05-18T18:54:57.503Z,99230.70
2019-05-18T18:58:01.188Z,99232.70
2019-05-18T19:01:04.822Z,99232.72
2019-05-18T19:04:08.455Z,99238.52
2019-05-18T19:07:12.175Z,99231.08
2019-05-18T19:10:16.375Z,99238.56
2019-05-18T19:13:23.077Z,99239.42
2019-05-18T19:16:26.816Z,99238.87
2019-05-18T19:19:30.525Z,99247.16
2019-05-18T19:22:34.472Z,99249.09
2019-05-18T19:25:38.146Z,99256.82
2019-05-18T19:28:41.854Z,99261.80
2019-05-18T19:31:45.517Z,99267.31
2019-05-18T19:34:49.191Z,99262.88
2019-05-18T19:37:52.842Z,99264.55
2019-05-18T19:40:56.513Z,99265.36
2019-05-18T19:44:00.117Z,99268.67
2019-05-18T19:47:03.781Z,99277.50
2019-05-18T19:50:08.651Z,99279.70
2019-05-18T19:53:13.305Z,99274.45
2019-05-18T19:56:17.013Z,99280.23
2019-05-18T19:59:20.740Z,99285.45
2019-05-18T20:02:29.093Z,99285.19
2019-05-18T20:05:32.594Z,99289.57
2019-05-18T20:08:36.318Z,99282.38
2019-05-18T20:11:39.959Z,99289.78
2019-05-18T20:14:43.646Z,99293.33
2019-05-18T20:17:51.706Z,99296.31
2019-05-18T20:20:55.362Z,99297.95
2019-05-18T20:23:59.005Z,99297.94
2019-05-18T20:27:04.536Z,99292.39
2019-05-18T20:30:09.597Z,99293.99
2019-05-18T20:33:15.648Z,99294.52
2019-05-18T20:36:23.829Z,99293.95
2019-05-18T20:39:37.368Z,99293.11
2019-05-18T20:42:40.973Z,99294.17
2019-05-18T20:45:44.639Z,99291.66
2019-05-18T20:48:48.299Z,99299.56
2019-05-18T20:51:55.057Z,99296.52
2019-05-18T20:54:58.761Z,99300.33
2019-05-18T20:58:02.488Z,99290.38
2019-05-18T21:01:06.121Z,99297.78
2019-05-18T21:04:09.773Z,99296.34
2019-05-18T21:07:13.404Z,99299.34
2019-05-18T21:10:17.244Z,99300.98
2019-05-18T21:13:20.867Z,99304.74
2019-05-18T21:16:24.611Z,99304.70
2019-05-18T21:19:28.300Z,99301.66
2019-05-18T21:22:31.984Z,99304.15
2019-05-18T21:25:35.961Z,99305.75
2019-05-18T21:28:53.406Z,99301.11
2019-05-18T21:31:44.985Z,99305.45
2019-05-18T21:34:48.659Z,99301.55
2019-05-18T21:37:52.335Z,99301.17
2019-05-18T21:40:55.991Z,99298.98
2019-05-18T21:43:59.614Z,99290.66
2019-05-18T21:47:03.354Z,99296.92
2019-05-18T21:50:07.977Z,99289.24
2019-05-18T21:53:11.877Z,99294.70
2019-05-18T21:56:15.570Z,99288.00
2019-05-18T21:59:20.888Z,99291.77
2019-05-18T22:02:24.704Z,99290.05
2019-05-18T22:05:28.399Z,99285.06
2019-05-18T22:08:32.071Z,99282.28
2019-05-18T22:11:35.955Z,99280.12
2019-05-18T22:14:39.706Z,99276.02
2019-05-18T22:18:01.214Z,99272.57
2019-05-18T22:21:06.696Z,99281.83
2019-05-18T22:24:11.802Z,99273.23
2019-05-18T22:27:21.335Z,99279.84
2019-05-18T22:30:26.663Z,99275.97
2019-05-18T22:33:33.134Z,99266.63
2019-05-18T22:36:36.791Z,99267.41
2019-05-18T22:39:40.413Z,99263.29
2019-05-18T22:42:44.188Z,99268.22
2019-05-18T22:45:49.503Z,99260.19
2019-05-18T22:48:53.139Z,99264.08
2019-05-18T22:51:58.319Z,99264.65
2019-05-18T22:55:04.798Z,99265.03
2019-05-18T22:58:08.484Z,99258.11
2019-05-18T23:01:14.525Z,99255.81
2019-05-18T23:04:19.591Z,99265.36
2019-05-18T23:07:35.123Z,99260.17
2019-05-18T23:10:35.933Z,99259.67
2019-05-18T23:13:45.434Z,99251.86
2019-05-18T23:16:53.134Z,99263.12
2019-05-18T23:19:57.980Z,99256.81
2019-05-18T23:23:01.660Z,99255.58
2019-05-18T23:26:06.737Z,99258.83
2019-05-18T23:29:11.426Z,99255.56
2019-05-18T23:32:22.594Z,99255.46
2019-05-18T23:35:26.167Z,99253.83
2019-05-18T23:38:29.796Z,99256.50
2019-05-18T23:41:33.433Z,99253.33
2019-05-18T23:44:37.109Z,99254.75
2019-05-18T23:47:43.958Z,99247.85
2019-05-18T23:50:59.875Z,99245.09
2019-05-18T23:54:06.921Z,99239.94
2019-05-18T23:57:10.445Z,99239.95
